Time;durP1;ratioP1;P1;durP2;ratioP2;P2;SDS_P1;SDS_P2;PMS_P1;PMS_P2;Temp;Humidity;BMP_temperature;BMP_pressure;BME280_temperature;BME280_humidity;BME280_pressure;Samples;Min_cycle;Max_cycle;Signal;HPM_P1;HPM_P2
2021/12/01 00:02:26;;;;;;;2.70;1.65;;;;;;;;;;5026567;28;20081;-72
2021/12/01 00:04:52;;;;;;;3.70;1.90;;;;;;;;;;5024601;28;20026;-72
2021/12/01 00:07:17;;;;;;;3.75;1.70;;;;;;;;;;5028912;28;20010;-72
2021/12/01 00:09:43;;;;;;;1.70;1.38;;;;;;;;;;5021802;28;20049;-73
2021/12/01 00:12:09;;;;;;;1.02;0.85;;;;;;;;;;5023913;28;20018;-73
2021/12/01 00:14:34;;;;;;;1.40;0.77;;;;;;;;;;5022479;28;20033;-73
2021/12/01 00:17:00;;;;;;;1.63;1.17;;;;;;;;;;5023332;28;20025;-72
2021/12/01 00:19:25;;;;;;;1.17;1.05;;;;;;;;;;5025918;28;20476;-72
2021/12/01 00:21:52;;;;;;;2.28;1.50;;;;;;;;;;5024659;28;20025;-71
2021/12/01 00:24:17;;;;;;;3.53;1.42;;;;;;;;;;5025740;28;20009;-72
2021/12/01 00:26:43;;;;;;;3.63;1.40;;;;;;;;;;5024289;28;20034;-73
2021/12/01 00:29:09;;;;;;;3.22;1.50;;;;;;;;;;5027801;28;20033;-72
2021/12/01 00:31:34;;;;;;;2.60;1.25;;;;;;;;;;5023609;28;20030;-73
2021/12/01 00:34:01;;;;;;;2.10;1.20;;;;;;;;;;5024946;28;20116;-71
2021/12/01 00:36:27;;;;;;;2.28;1.45;;;;;;;;;;5024559;28;20155;-71
2021/12/01 00:38:53;;;;;;;2.80;1.35;;;;;;;;;;5022732;28;20026;-72
2021/12/01 00:41:21;;;;;;;3.13;1.33;;;;;;;;;;5025460;28;20026;-71
2021/12/01 00:43:48;;;;;;;2.60;1.65;;;;;;;;;;5025743;28;20036;-71
2021/12/01 00:46:20;;;;;;;2.88;1.23;;;;;;;;;;5025642;28;20021;-72
2021/12/01 00:48:45;;;;;;;3.42;1.42;;;;;;;;;;5022878;28;20037;-72
2021/12/01 00:51:11;;;;;;;2.05;0.98;;;;;;;;;;5021640;28;20034;-71
2021/12/01 00:53:37;;;;;;;3.50;1.60;;;;;;;;;;5022602;28;20030;-70
2021/12/01 00:56:03;;;;;;;3.47;1.58;;;;;;;;;;5042532;28;20357;-71
2021/12/01 00:58:29;;;;;;;2.90;1.30;;;;;;;;;;5025374;28;20018;-70
2021/12/01 01:00:55;;;;;;;3.63;1.50;;;;;;;;;;5025260;28;20026;-63
2021/12/01 01:03:21;;;;;;;2.78;1.73;;;;;;;;;;5025551;28;20096;-64
2021/12/01 01:05:46;;;;;;;2.22;1.55;;;;;;;;;;5039887;28;20391;-64
2021/12/01 01:08:12;;;;;;;2.47;1.35;;;;;;;;;;5027914;28;20047;-64
2021/12/01 01:18:35;;;;;;;3.17;1.35;;;;;;;;;;5025108;28;20034;-65
2021/12/01 01:21:01;;;;;;;2.88;1.23;;;;;;;;;;5024924;28;20439;-71
2021/12/01 01:23:29;;;;;;;1.70;1.40;;;;;;;;;;5023166;28;20041;-71
2021/12/01 01:26:21;;;;;;;1.30;0.98;;;;;;;;;;5022498;28;20026;-71
2021/12/01 01:29:25;;;;;;;4.10;1.30;;;;;;;;;;5006875;28;20073;-72
2021/12/01 01:31:57;;;;;;;2.38;1.13;;;;;;;;;;5023432;28;20029;-72
2021/12/01 01:34:24;;;;;;;0.77;0.65;;;;;;;;;;5024562;28;20045;-71
2021/12/01 01:36:50;;;;;;;4.15;0.98;;;;;;;;;;5023182;28;20476;-64
2021/12/01 01:39:16;;;;;;;3.00;1.33;;;;;;;;;;5025213;28;20051;-65
2021/12/01 01:41:42;;;;;;;3.40;1.50;;;;;;;;;;5019636;28;20026;-65
2021/12/01 01:44:26;;;;;;;2.53;1.30;;;;;;;;;;5022905;28;20022;-65
2021/12/01 01:46:58;;;;;;;2.45;1.20;;;;;;;;;;5029662;28;20041;-66
2021/12/01 01:52:27;;;;;;;1.73;1.23;;;;;;;;;;5019527;28;20081;-64
2021/12/01 01:54:53;;;;;;;2.40;0.88;;;;;;;;;;5020196;28;20087;-64
2021/12/01 01:57:19;;;;;;;2.20;1.05;;;;;;;;;;5023988;28;20014;-64
2021/12/01 01:59:44;;;;;;;1.55;0.85;;;;;;;;;;5027855;28;20009;-64
2021/12/01 02:02:10;;;;;;;2.50;1.60;;;;;;;;;;5024918;28;20022;-64
2021/12/01 02:04:36;;;;;;;1.25;1.13;;;;;;;;;;5027943;28;20014;-64
2021/12/01 02:07:02;;;;;;;1.55;0.90;;;;;;;;;;5020966;28;20080;-72
2021/12/01 02:09:28;;;;;;;2.55;1.10;;;;;;;;;;5024246;28;20108;-71
2021/12/01 02:11:55;;;;;;;2.60;1.00;;;;;;;;;;5021316;28;20122;-72
2021/12/01 02:14:21;;;;;;;2.40;1.15;;;;;;;;;;5023330;28;20022;-72
2021/12/01 02:16:47;;;;;;;2.00;1.00;;;;;;;;;;5021718;28;20105;-73
2021/12/01 02:19:14;;;;;;;2.95;1.10;;;;;;;;;;5022704;28;20013;-73
2021/12/01 02:21:41;;;;;;;1.52;0.95;;;;;;;;;;5020289;28;20121;-73
2021/12/01 02:24:08;;;;;;;0.55;0.50;;;;;;;;;;5020964;28;20048;-73
2021/12/01 02:26:36;;;;;;;1.25;0.77;;;;;;;;;;5024606;28;20036;-73
2021/12/01 02:29:04;;;;;;;1.35;0.80;;;;;;;;;;5019447;28;20105;-73
2021/12/01 02:31:33;;;;;;;0.90;0.77;;;;;;;;;;5024636;28;20030;-73
2021/12/01 02:33:58;;;;;;;1.15;0.60;;;;;;;;;;5027304;28;20064;-75
2021/12/01 02:36:24;;;;;;;1.40;0.80;;;;;;;;;;5026034;28;20029;-73
2021/12/01 02:38:49;;;;;;;2.08;0.88;;;;;;;;;;5021912;28;20021;-73
2021/12/01 02:41:18;;;;;;;1.17;0.80;;;;;;;;;;5022683;28;20117;-73
2021/12/01 02:43:45;;;;;;;1.17;0.75;;;;;;;;;;5021300;28;20100;-72
2021/12/01 02:46:11;;;;;;;1.05;0.68;;;;;;;;;;5023801;28;20022;-72
2021/12/01 02:48:41;;;;;;;1.27;0.85;;;;;;;;;;5023876;28;20010;-72
2021/12/01 02:51:08;;;;;;;;;;;;;;;;;;5023738;28;20484;-72
2021/12/01 02:53:33;;;;;;;1.58;1.00;;;;;;;;;;5022874;28;20326;-72
2021/12/01 02:56:01;;;;;;;2.55;0.70;;;;;;;;;;5021086;28;20087;-73
2021/12/01 02:58:28;;;;;;;1.17;0.93;;;;;;;;;;5022735;28;20020;-72
2021/12/01 03:00:54;;;;;;;1.63;0.93;;;;;;;;;;5022360;28;20028;-72
2021/12/01 03:03:23;;;;;;;1.23;0.95;;;;;;;;;;5021649;28;20013;-72
2021/12/01 03:05:50;;;;;;;1.50;1.00;;;;;;;;;;5019055;28;20034;-72
2021/12/01 03:08:18;;;;;;;1.10;0.80;;;;;;;;;;5005203;28;20135;-72
2021/12/01 03:10:46;;;;;;;1.80;0.80;;;;;;;;;;5023495;28;20103;-72
2021/12/01 03:13:11;;;;;;;2.05;1.00;;;;;;;;;;5022936;28;20021;-72
2021/12/01 03:15:37;;;;;;;1.67;1.05;;;;;;;;;;5016970;28;20026;-74
2021/12/01 03:18:02;;;;;;;2.20;1.08;;;;;;;;;;5023580;28;20108;-74
2021/12/01 03:20:28;;;;;;;0.63;0.63;;;;;;;;;;5026152;28;20105;-72
2021/12/01 03:22:54;;;;;;;1.42;0.95;;;;;;;;;;5029102;28;20030;-72
2021/12/01 03:25:22;;;;;;;1.40;1.00;;;;;;;;;;5029042;28;20029;-72
2021/12/01 03:27:48;;;;;;;1.45;0.90;;;;;;;;;;5027037;28;20740;-71
2021/12/01 03:30:14;;;;;;;1.15;0.90;;;;;;;;;;5024212;28;20175;-71
2021/12/01 03:32:40;;;;;;;2.60;0.90;;;;;;;;;;5027395;28;20530;-71
2021/12/01 03:35:10;;;;;;;1.42;1.05;;;;;;;;;;5024331;28;20049;-71
2021/12/01 03:37:36;;;;;;;1.35;0.70;;;;;;;;;;5026046;28;20018;-71
2021/12/01 03:40:02;;;;;;;1.58;0.82;;;;;;;;;;5026851;28;20021;-71
2021/12/01 03:42:28;;;;;;;1.13;0.70;;;;;;;;;;5026449;28;20483;-71
2021/12/01 03:44:56;;;;;;;1.23;0.85;;;;;;;;;;5023947;28;20029;-71
2021/12/01 03:47:23;;;;;;;1.52;0.88;;;;;;;;;;5023994;28;20017;-71
2021/12/01 03:49:48;;;;;;;0.95;0.80;;;;;;;;;;5026524;28;20068;-72
2021/12/01 03:52:16;;;;;;;1.05;0.80;;;;;;;;;;5029607;28;20017;-72
2021/12/01 03:54:43;;;;;;;1.00;0.85;;;;;;;;;;5028885;28;20037;-72
2021/12/01 03:57:09;;;;;;;1.70;0.80;;;;;;;;;;5039480;28;20487;-72
2021/12/01 03:59:34;;;;;;;1.08;0.80;;;;;;;;;;5026431;28;20112;-71
2021/12/01 04:02:01;;;;;;;1.42;0.90;;;;;;;;;;5035936;28;20029;-71
2021/12/01 04:04:26;;;;;;;2.50;1.05;;;;;;;;;;5034637;28;20017;-72
2021/12/01 04:06:52;;;;;;;1.42;0.93;;;;;;;;;;5034100;28;20037;-72
2021/12/01 04:09:17;;;;;;;1.00;0.90;;;;;;;;;;5034319;28;20071;-71
2021/12/01 04:11:43;;;;;;;3.13;1.27;;;;;;;;;;5034235;28;20111;-72
2021/12/01 04:14:08;;;;;;;1.35;1.10;;;;;;;;;;5035379;28;20036;-71
2021/12/01 04:16:34;;;;;;;0.93;0.82;;;;;;;;;;5035486;28;20029;-74
2021/12/01 04:19:00;;;;;;;1.33;1.10;;;;;;;;;;5034202;28;20030;-73
2021/12/01 04:21:26;;;;;;;1.35;1.10;;;;;;;;;;5035165;28;20021;-65
2021/12/01 04:23:53;;;;;;;1.95;1.00;;;;;;;;;;5050373;28;20480;-65
2021/12/01 04:26:27;;;;;;;1.25;1.15;;;;;;;;;;5035353;28;20083;-65
2021/12/01 04:28:55;;;;;;;1.00;0.90;;;;;;;;;;5033906;28;20037;-73
2021/12/01 04:31:24;;;;;;;1.63;1.20;;;;;;;;;;5033887;28;20040;-65
2021/12/01 04:33:50;;;;;;;1.15;1.05;;;;;;;;;;5034253;28;20454;-65
2021/12/01 04:36:17;;;;;;;1.23;1.13;;;;;;;;;;5034641;28;20128;-66
2021/12/01 04:38:43;;;;;;;1.63;1.20;;;;;;;;;;5034644;28;20113;-66
2021/12/01 04:41:09;;;;;;;2.78;1.10;;;;;;;;;;5016916;28;20104;-66
2021/12/01 04:43:37;;;;;;;2.10;0.88;;;;;;;;;;5033574;28;20040;-66
2021/12/01 04:46:03;;;;;;;1.35;0.90;;;;;;;;;;5034488;28;20108;-67
2021/12/01 04:48:29;;;;;;;1.83;1.40;;;;;;;;;;5034682;28;20026;-66
2021/12/01 04:50:54;;;;;;;1.52;1.42;;;;;;;;;;5034854;28;20083;-65
2021/12/01 04:53:20;;;;;;;1.50;1.23;;;;;;;;;;5032736;28;20468;-64
2021/12/01 04:55:46;;;;;;;1.63;1.38;;;;;;;;;;5034359;28;20071;-64
2021/12/01 04:58:11;;;;;;;1.95;1.38;;;;;;;;;;5034842;28;20029;-64
2021/12/01 05:00:37;;;;;;;1.98;1.85;;;;;;;;;;5033061;28;20044;-64
2021/12/01 05:03:04;;;;;;;1.40;1.30;;;;;;;;;;5049741;28;20079;-64
2021/12/01 05:05:29;;;;;;;2.53;1.90;;;;;;;;;;5034312;28;20091;-63
2021/12/01 05:07:55;;;;;;;2.58;2.30;;;;;;;;;;5032887;28;20064;-65
2021/12/01 05:10:20;;;;;;;2.03;1.50;;;;;;;;;;5032775;28;20025;-65
2021/12/01 05:12:46;;;;;;;1.33;1.23;;;;;;;;;;5034249;28;20033;-71
2021/12/01 05:15:11;;;;;;;1.35;1.23;;;;;;;;;;5033695;28;20380;-72
2021/12/01 05:17:37;;;;;;;1.60;1.20;;;;;;;;;;5033060;28;20071;-73
2021/12/01 05:20:04;;;;;;;2.30;1.38;;;;;;;;;;5026440;28;20133;-72
2021/12/01 05:22:30;;;;;;;1.67;1.30;;;;;;;;;;5005159;28;20014;-72
2021/12/01 05:24:55;;;;;;;1.92;1.13;;;;;;;;;;5034242;28;20411;-73
2021/12/01 05:27:21;;;;;;;1.40;1.30;;;;;;;;;;5032526;28;20031;-72
2021/12/01 05:29:48;;;;;;;2.60;1.33;;;;;;;;;;5032682;28;20448;-72
2021/12/01 05:32:15;;;;;;;1.42;1.33;;;;;;;;;;5034177;28;20471;-72
2021/12/01 05:34:41;;;;;;;2.72;1.42;;;;;;;;;;5033123;28;20065;-72
2021/12/01 05:37:08;;;;;;;3.85;1.27;;;;;;;;;;5033158;28;20505;-72
2021/12/01 05:39:34;;;;;;;1.50;1.35;;;;;;;;;;5033753;28;20033;-72
2021/12/01 05:41:59;;;;;;;1.98;1.60;;;;;;;;;;5031877;28;20040;-71
2021/12/01 05:44:25;;;;;;;2.00;1.70;;;;;;;;;;5032630;28;20437;-72
2021/12/01 05:46:51;;;;;;;1.80;1.67;;;;;;;;;;5033367;28;20029;-72
2021/12/01 05:49:16;;;;;;;2.00;1.90;;;;;;;;;;5033495;28;20078;-72
2021/12/01 05:51:43;;;;;;;1.98;1.88;;;;;;;;;;5033490;28;20030;-72
2021/12/01 05:54:09;;;;;;;3.15;1.88;;;;;;;;;;5033873;28;20032;-72
2021/12/01 05:56:35;;;;;;;2.72;2.20;;;;;;;;;;5033449;28;20180;-72
2021/12/01 05:59:00;;;;;;;2.05;1.77;;;;;;;;;;5033462;28;20045;-72
2021/12/01 06:01:26;;;;;;;2.28;1.60;;;;;;;;;;5033356;28;20387;-72
2021/12/01 06:03:52;;;;;;;2.13;1.83;;;;;;;;;;5033699;28;20025;-72
2021/12/01 06:06:20;;;;;;;2.83;2.22;;;;;;;;;;5031938;28;20037;-72
2021/12/01 06:08:46;;;;;;;2.95;2.10;;;;;;;;;;5032214;28;20032;-72
2021/12/01 06:11:11;;;;;;;13.32;2.83;;;;;;;;;;5032002;28;20109;-71
2021/12/01 06:13:37;;;;;;;4.13;1.40;;;;;;;;;;5033252;28;20052;-71
2021/12/01 06:16:03;;;;;;;2.00;1.58;;;;;;;;;;5033290;28;20026;-71
2021/12/01 06:18:30;;;;;;;1.60;1.50;;;;;;;;;;5033250;28;20064;-72
2021/12/01 06:20:57;;;;;;;1.75;1.58;;;;;;;;;;5033012;28;20491;-71
2021/12/01 06:23:24;;;;;;;3.75;1.90;;;;;;;;;;5033305;28;20048;-71
2021/12/01 06:25:49;;;;;;;1.67;1.38;;;;;;;;;;5033024;28;20053;-71
2021/12/01 06:28:15;;;;;;;2.30;1.85;;;;;;;;;;5033121;28;20056;-71
2021/12/01 06:30:40;;;;;;;1.90;1.80;;;;;;;;;;5033166;28;20025;-71
2021/12/01 06:33:06;;;;;;;2.63;2.15;;;;;;;;;;5032734;28;20034;-71
2021/12/01 06:35:32;;;;;;;2.20;1.90;;;;;;;;;;5048482;28;20026;-71
2021/12/01 06:37:58;;;;;;;2.22;2.08;;;;;;;;;;5033057;28;20036;-69
2021/12/01 06:40:24;;;;;;;2.42;2.10;;;;;;;;;;5031342;28;20065;-68
2021/12/01 06:42:49;;;;;;;1.85;1.75;;;;;;;;;;5032825;28;20033;-69
2021/12/01 06:45:16;;;;;;;2.55;2.05;;;;;;;;;;5031513;28;20033;-68
2021/12/01 06:47:42;;;;;;;2.80;2.00;;;;;;;;;;5032784;28;20119;-68
2021/12/01 06:50:08;;;;;;;2.55;2.35;;;;;;;;;;5032773;28;20417;-68
2021/12/01 06:52:33;;;;;;;4.28;2.67;;;;;;;;;;5032806;28;20021;-68
2021/12/01 06:55:00;;;;;;;3.20;2.60;;;;;;;;;;5035409;28;20510;-68
2021/12/01 06:57:26;;;;;;;3.78;2.33;;;;;;;;;;5036725;28;20051;-68
2021/12/01 06:59:51;;;;;;;3.85;2.85;;;;;;;;;;5035323;28;20021;-68
2021/12/01 07:02:17;;;;;;;3.92;2.67;;;;;;;;;;5036358;28;20377;-68
2021/12/01 07:04:43;;;;;;;5.70;3.08;;;;;;;;;;5035159;28;20021;-68
2021/12/01 07:07:09;;;;;;;3.42;2.80;;;;;;;;;;5036389;28;20446;-70
2021/12/01 07:09:34;;;;;;;5.22;2.70;;;;;;;;;;5036324;28;20113;-69
2021/12/01 07:12:00;;;;;;;3.42;2.53;;;;;;;;;;5036335;28;20030;-69
2021/12/01 07:14:25;;;;;;;5.28;2.83;;;;;;;;;;5035116;28;20033;-69
2021/12/01 07:16:51;;;;;;;4.50;3.25;;;;;;;;;;5036188;28;20060;-69
2021/12/01 07:19:16;;;;;;;3.35;3.05;;;;;;;;;;5036249;28;20496;-69
2021/12/01 07:21:42;;;;;;;3.35;2.97;;;;;;;;;;5036302;28;20502;-69
2021/12/01 07:24:07;;;;;;;4.82;2.90;;;;;;;;;;5036075;28;20172;-69
2021/12/01 07:26:33;;;;;;;5.63;3.08;;;;;;;;;;5035992;28;20092;-69
2021/12/01 07:28:59;;;;;;;4.32;3.10;;;;;;;;;;5035944;28;20025;-69
2021/12/01 07:31:24;;;;;;;3.90;2.63;;;;;;;;;;5036052;28;20033;-69
2021/12/01 07:33:50;;;;;;;3.63;2.85;;;;;;;;;;5035432;28;20132;-69
2021/12/01 07:36:16;;;;;;;4.05;3.35;;;;;;;;;;5035594;28;20079;-69
2021/12/01 07:38:50;;;;;;;4.68;3.60;;;;;;;;;;5035379;28;20496;-70
2021/12/01 07:41:18;;;;;;;5.22;3.60;;;;;;;;;;5034138;28;20076;-70
2021/12/01 07:43:44;;;;;;;6.50;4.38;;;;;;;;;;5035480;28;20025;-70
2021/12/01 07:46:09;;;;;;;7.85;6.55;;;;;;;;;;5034940;28;20159;-69
2021/12/01 07:48:36;;;;;;;14.77;10.48;;;;;;;;;;5034974;28;20024;-70
2021/12/01 07:51:02;;;;;;;12.23;9.68;;;;;;;;;;5034184;28;20026;-70
2021/12/01 07:53:27;;;;;;;12.30;8.38;;;;;;;;;;5035384;28;20017;-70
2021/12/01 07:55:53;;;;;;;10.95;7.05;;;;;;;;;;5035502;28;20033;-70
2021/12/01 07:58:18;;;;;;;8.73;6.63;;;;;;;;;;5035347;28;20444;-70
2021/12/01 08:00:44;;;;;;;10.77;6.70;;;;;;;;;;5035406;28;20026;-70
2021/12/01 08:03:09;;;;;;;10.35;6.57;;;;;;;;;;5035383;28;20380;-70
2021/12/01 08:05:35;;;;;;;10.80;6.82;;;;;;;;;;5034742;28;20040;-69
2021/12/01 08:08:01;;;;;;;9.80;6.45;;;;;;;;;;5035173;28;20033;-70
2021/12/01 08:10:26;;;;;;;9.70;6.63;;;;;;;;;;5034033;28;20451;-70
2021/12/01 08:12:52;;;;;;;8.65;5.93;;;;;;;;;;5034007;28;20464;-70
2021/12/01 08:15:17;;;;;;;8.52;5.72;;;;;;;;;;5034993;28;20033;-70
2021/12/01 08:17:43;;;;;;;11.35;7.40;;;;;;;;;;5034953;28;20384;-70
2021/12/01 08:20:09;;;;;;;12.02;7.22;;;;;;;;;;5035029;28;20017;-70
2021/12/01 08:22:34;;;;;;;16.38;8.75;;;;;;;;;;5034760;28;20029;-70
2021/12/01 08:25:00;;;;;;;6.68;4.18;;;;;;;;;;5034830;28;20025;-69
2021/12/01 08:27:31;;;;;;;7.40;4.50;;;;;;;;;;5034972;28;20028;-70
2021/12/01 08:29:57;;;;;;;11.07;6.50;;;;;;;;;;5034498;28;20041;-69
2021/12/01 08:32:22;;;;;;;8.98;5.45;;;;;;;;;;5033704;28;20014;-69
2021/12/01 08:34:51;;;;;;;9.27;5.75;;;;;;;;;;5034549;28;20107;-70
2021/12/01 08:37:18;;;;;;;11.63;6.38;;;;;;;;;;5034701;28;20079;-69
2021/12/01 08:39:48;;;;;;;12.55;7.68;;;;;;;;;;5033608;28;20104;-70
2021/12/01 08:42:20;;;;;;;8.67;5.07;;;;;;;;;;5034811;28;20040;-69
2021/12/01 08:44:47;;;;;;;10.27;6.18;;;;;;;;;;5034693;28;20087;-70
2021/12/01 08:47:13;;;;;;;12.55;5.90;;;;;;;;;;5034396;28;20021;-70
2021/12/01 08:49:39;;;;;;;8.95;4.85;;;;;;;;;;5034428;28;20037;-69
2021/12/01 08:52:04;;;;;;;11.88;6.38;;;;;;;;;;5034370;28;20487;-70
2021/12/01 08:54:30;;;;;;;13.63;7.07;;;;;;;;;;5034378;28;20037;-69
2021/12/01 08:56:57;;;;;;;12.70;7.18;;;;;;;;;;5034298;28;20153;-69
2021/12/01 08:59:22;;;;;;;10.75;5.65;;;;;;;;;;5034171;28;20414;-69
2021/12/01 09:01:48;;;;;;;11.65;5.55;;;;;;;;;;5034154;28;20020;-69
2021/12/01 09:04:13;;;;;;;7.93;4.55;;;;;;;;;;5034264;28;20034;-69
2021/12/01 09:06:39;;;;;;;7.22;3.75;;;;;;;;;;5034119;28;20071;-69
2021/12/01 09:09:04;;;;;;;6.80;3.75;;;;;;;;;;5032873;28;20446;-69
2021/12/01 09:11:30;;;;;;;8.18;4.80;;;;;;;;;;5034108;28;20021;-69
2021/12/01 09:13:55;;;;;;;6.10;3.72;;;;;;;;;;5033964;28;20080;-69
2021/12/01 09:16:21;;;;;;;7.55;3.63;;;;;;;;;;5033111;28;20419;-69
2021/12/01 09:18:50;;;;;;;7.28;3.20;;;;;;;;;;5049289;28;20026;-69
2021/12/01 09:21:16;;;;;;;7.57;3.35;;;;;;;;;;5033924;28;20021;-69
2021/12/01 09:23:42;;;;;;;12.90;7.35;;;;;;;;;;5033611;28;20025;-69
2021/12/01 09:26:08;;;;;;;10.60;6.07;;;;;;;;;;5033673;28;20427;-69
2021/12/01 09:28:33;;;;;;;12.25;5.82;;;;;;;;;;5033617;28;20042;-69
2021/12/01 09:30:59;;;;;;;5.88;2.97;;;;;;;;;;5032466;28;20021;-69
2021/12/01 09:33:25;;;;;;;6.65;3.70;;;;;;;;;;5033149;28;20144;-69
2021/12/01 09:35:51;;;;;;;5.35;3.70;;;;;;;;;;5033884;28;20423;-69
2021/12/01 09:38:18;;;;;;;7.05;2.63;;;;;;;;;;5033639;28;20028;-69
2021/12/01 09:40:49;;;;;;;5.65;2.88;;;;;;;;;;5032432;28;20029;-69
2021/12/01 09:43:42;;;;;;;8.05;3.22;;;;;;;;;;5033527;28;20025;-69
2021/12/01 09:53:04;;;;;;;1.75;1.52;;;;;;;;;;5033584;28;20029;-69
2021/12/01 09:55:30;;;;;;;5.82;2.58;;;;;;;;;;5033311;28;20029;-69
2021/12/01 09:58:04;;;;;;;3.78;2.60;;;;;;;;;;5033351;28;20029;-69
2021/12/01 10:00:30;;;;;;;8.80;3.75;;;;;;;;;;5048546;28;20392;-69
2021/12/01 10:02:55;;;;;;;4.75;2.53;;;;;;;;;;5033183;28;20021;-69
2021/12/01 10:05:40;;;;;;;10.23;4.18;;;;;;;;;;5033193;28;20364;-69
2021/12/01 10:08:06;;;;;;;10.23;4.55;;;;;;;;;;5033398;28;20025;-69
2021/12/01 10:10:37;;;;;;;5.82;3.10;;;;;;;;;;5032058;28;20025;-67
2021/12/01 10:13:02;;;;;;;6.97;4.07;;;;;;;;;;5033263;28;20033;-68
2021/12/01 10:15:32;;;;;;;6.63;3.85;;;;;;;;;;5033095;28;20032;-68
2021/12/01 10:18:14;;;;;;;5.65;3.00;;;;;;;;;;5032745;28;20041;-68
2021/12/01 10:20:40;;;;;;;31.95;17.35;;;;;;;;;;5031856;28;20140;-68
2021/12/01 10:23:15;;;;;;;15.20;8.90;;;;;;;;;;5033159;28;20455;-69
2021/12/01 10:25:41;;;;;;;7.55;4.47;;;;;;;;;;5033077;28;20037;-68
2021/12/01 10:28:06;;;;;;;8.00;3.70;;;;;;;;;;5033069;28;20032;-68
2021/12/01 10:30:46;;;;;;;9.30;3.47;;;;;;;;;;5036913;28;20083;-68
2021/12/01 10:33:11;;;;;;;7.15;3.90;;;;;;;;;;5036747;28;20046;-68
2021/12/01 10:35:37;;;;;;;8.07;4.18;;;;;;;;;;5037003;28;20029;-68
2021/12/01 10:38:04;;;;;;;6.25;2.78;;;;;;;;;;5052302;28;20056;-68
2021/12/01 10:40:30;;;;;;;6.93;3.50;;;;;;;;;;5036909;28;20022;-69
2021/12/01 10:43:00;;;;;;;8.77;4.28;;;;;;;;;;5036729;28;20120;-69
2021/12/01 10:45:35;;;;;;;6.82;3.58;;;;;;;;;;5036705;28;20112;-69
2021/12/01 10:48:02;;;;;;;5.28;2.60;;;;;;;;;;5036657;28;20033;-69
2021/12/01 10:50:29;;;;;;;3.97;1.98;;;;;;;;;;5035433;28;20028;-69
2021/12/01 10:53:00;;;;;;;1.70;1.05;;;;;;;;;;5036587;28;20026;-69
2021/12/01 10:55:27;;;;;;;2.30;1.13;;;;;;;;;;5035272;28;20044;-69
2021/12/01 10:57:58;;;;;;;9.18;4.53;;;;;;;;;;5035243;28;20022;-69
2021/12/01 11:00:26;;;;;;;6.72;3.50;;;;;;;;;;5035316;28;20033;-69
2021/12/01 11:02:52;;;;;;;8.13;4.18;;;;;;;;;;5036521;28;20039;-69
2021/12/01 11:05:28;;;;;;;8.10;3.83;;;;;;;;;;5036388;28;20514;-69
2021/12/01 11:07:53;;;;;;;7.72;4.53;;;;;;;;;;5051789;28;20476;-70
2021/12/01 11:10:20;;;;;;;7.53;4.32;;;;;;;;;;5035050;28;20017;-69
2021/12/01 11:12:57;;;;;;;2.63;1.50;;;;;;;;;;5051413;28;20033;-69
2021/12/01 11:15:22;;;;;;;4.93;0.95;;;;;;;;;;5036221;28;20083;-69
2021/12/01 11:17:48;;;;;;;4.30;2.40;;;;;;;;;;5036268;28;20491;-69
2021/12/01 11:20:30;;;;;;;5.60;3.45;;;;;;;;;;5036275;28;20486;-69
2021/12/01 11:23:08;;;;;;;10.43;5.13;;;;;;;;;;5018820;28;20455;-69
2021/12/01 11:25:36;;;;;;;7.35;3.95;;;;;;;;;;5036051;28;20388;-69
2021/12/01 11:28:01;;;;;;;10.75;6.40;;;;;;;;;;5035955;28;20033;-69
2021/12/01 11:30:27;;;;;;;8.73;4.50;;;;;;;;;;5035901;28;20041;-69
2021/12/01 11:32:52;;;;;;;9.88;5.22;;;;;;;;;;5035581;28;20072;-69
2021/12/01 11:35:18;;;;;;;8.57;4.18;;;;;;;;;;5035723;28;20048;-70
2021/12/01 11:37:44;;;;;;;8.07;3.53;;;;;;;;;;5035895;28;20018;-69
2021/12/01 11:40:10;;;;;;;7.32;3.75;;;;;;;;;;5033722;28;20621;-68
2021/12/01 11:42:37;;;;;;;3.35;2.53;;;;;;;;;;5035784;28;20112;-69
2021/12/01 11:45:02;;;;;;;7.07;4.43;;;;;;;;;;5034476;28;20037;-68
2021/12/01 11:47:28;;;;;;;8.20;5.53;;;;;;;;;;5035742;28;20091;-68
2021/12/01 11:49:55;;;;;;;13.68;8.13;;;;;;;;;;5035609;28;20464;-68
2021/12/01 11:52:27;;;;;;;15.95;8.73;;;;;;;;;;5034493;28;20025;-68
2021/12/01 11:54:52;;;;;;;15.35;7.93;;;;;;;;;;5034319;28;20041;-68
2021/12/01 11:57:19;;;;;;;7.47;4.97;;;;;;;;;;5035379;28;20041;-69
2021/12/01 11:59:49;;;;;;;11.18;6.13;;;;;;;;;;5035277;28;20472;-69
2021/12/01 12:02:17;;;;;;;21.70;9.13;;;;;;;;;;5035482;28;20037;-69
2021/12/01 12:04:44;;;;;;;27.63;12.13;;;;;;;;;;5034156;28;20083;-69
2021/12/01 12:07:12;;;;;;;7.30;5.15;;;;;;;;;;5034986;28;20033;-69
2021/12/01 12:09:38;;;;;;;9.40;5.22;;;;;;;;;;5035285;28;20037;-69
2021/12/01 12:12:14;;;;;;;11.70;5.60;;;;;;;;;;5034041;28;20084;-69
2021/12/01 12:14:45;;;;;;;7.93;4.35;;;;;;;;;;5035085;28;20068;-69
2021/12/01 12:17:12;;;;;;;4.85;3.17;;;;;;;;;;5033890;28;20037;-69
2021/12/01 12:19:50;;;;;;;12.10;6.38;;;;;;;;;;5033987;28;20063;-69
2021/12/01 12:22:37;;;;;;;12.65;6.88;;;;;;;;;;5034996;28;20029;-69
2021/12/01 12:25:05;;;;;;;8.55;5.18;;;;;;;;;;5035096;28;20061;-69
2021/12/01 12:27:31;;;;;;;14.60;7.03;;;;;;;;;;5034907;28;20054;-69
2021/12/01 12:29:58;;;;;;;5.45;2.95;;;;;;;;;;5034774;28;20104;-69
2021/12/01 12:32:29;;;;;;;4.40;3.42;;;;;;;;;;5034914;28;20052;-69
2021/12/01 12:34:55;;;;;;;8.38;4.38;;;;;;;;;;5033517;28;20411;-68
2021/12/01 12:37:22;;;;;;;10.85;5.35;;;;;;;;;;5034557;28;20025;-68
2021/12/01 12:39:47;;;;;;;7.13;4.70;;;;;;;;;;5034501;28;20030;-69
2021/12/01 12:42:13;;;;;;;5.32;3.03;;;;;;;;;;5034553;28;20116;-69
2021/12/01 12:44:40;;;;;;;5.88;3.28;;;;;;;;;;5034464;28;20029;-68
2021/12/01 12:47:08;;;;;;;4.72;2.80;;;;;;;;;;5034437;28;20029;-69
2021/12/01 12:49:36;;;;;;;5.30;3.20;;;;;;;;;;5034455;28;20033;-69
2021/12/01 12:52:40;;;;;;;5.15;3.25;;;;;;;;;;5034456;28;20390;-69
2021/12/01 12:55:09;;;;;;;5.68;3.47;;;;;;;;;;4992787;28;20030;-69
2021/12/01 12:57:50;;;;;;;4.55;2.47;;;;;;;;;;4992898;28;20027;-69
2021/12/01 13:00:15;;;;;;;;;;;;;;;;;;5017126;28;20445;-69
2021/12/01 13:02:40;;;;;;;6.07;2.47;;;;;;;;;;5033877;28;19948;-69
2021/12/01 13:05:07;;;;;;;4.97;2.97;;;;;;;;;;5034220;28;20384;-69
2021/12/01 13:07:43;;;;;;;5.20;3.17;;;;;;;;;;5034323;28;20070;-69
2021/12/01 13:10:08;;;;;;;4.50;2.67;;;;;;;;;;5032880;28;20037;-69
2021/12/01 13:12:45;;;;;;;4.15;2.63;;;;;;;;;;5034015;28;20017;-69
2021/12/01 13:15:21;;;;;;;3.25;2.80;;;;;;;;;;5034004;28;20029;-69
2021/12/01 13:17:50;;;;;;;3.17;2.83;;;;;;;;;;5033869;28;20029;-69
2021/12/01 13:20:17;;;;;;;4.57;2.88;;;;;;;;;;5033839;28;20365;-69
2021/12/01 13:22:58;;;;;;;4.38;2.83;;;;;;;;;;5033902;28;20376;-69
2021/12/01 13:25:23;;;;;;;7.57;3.42;;;;;;;;;;5034023;28;20106;-69
2021/12/01 13:27:50;;;;;;;3.13;1.85;;;;;;;;;;5033834;28;20578;-69
2021/12/01 13:30:16;;;;;;;5.85;3.80;;;;;;;;;;5032523;28;20025;-68
2021/12/01 13:32:41;;;;;;;8.43;4.57;;;;;;;;;;5032439;28;20017;-68
2021/12/01 13:35:07;;;;;;;9.07;6.47;;;;;;;;;;5033379;28;20103;-68
2021/12/01 13:37:32;;;;;;;12.25;7.30;;;;;;;;;;5033557;28;20025;-68
2021/12/01 13:39:58;;;;;;;9.15;6.13;;;;;;;;;;5033474;28;20446;-68
2021/12/01 13:42:24;;;;;;;12.88;6.22;;;;;;;;;;5033603;28;20052;-68
2021/12/01 13:44:51;;;;;;;6.95;5.57;;;;;;;;;;5032137;28;20476;-68
2021/12/01 13:47:16;;;;;;;7.50;5.55;;;;;;;;;;5032509;28;20029;-68
2021/12/01 13:49:42;;;;;;;6.60;4.93;;;;;;;;;;5033590;28;20027;-68
2021/12/01 13:52:09;;;;;;;7.30;5.03;;;;;;;;;;5033557;28;20037;-68
2021/12/01 13:54:35;;;;;;;7.03;5.22;;;;;;;;;;5033753;28;20518;-68
2021/12/01 13:57:06;;;;;;;8.35;5.07;;;;;;;;;;5033510;28;20038;-68
2021/12/01 13:59:37;;;;;;;5.38;4.53;;;;;;;;;;5033187;28;20030;-68
2021/12/01 14:02:03;;;;;;;7.07;5.03;;;;;;;;;;5033202;28;20034;-68
2021/12/01 14:04:28;;;;;;;5.60;4.20;;;;;;;;;;5033273;28;20163;-68
2021/12/01 14:06:55;;;;;;;5.03;4.15;;;;;;;;;;5031880;28;20025;-68
2021/12/01 14:09:21;;;;;;;6.03;4.30;;;;;;;;;;5031772;28;20025;-68
2021/12/01 14:11:49;;;;;;;7.07;4.75;;;;;;;;;;5033167;28;20480;-68
2021/12/01 14:14:19;;;;;;;5.90;3.38;;;;;;;;;;5033046;28;20028;-68
2021/12/01 14:16:46;;;;;;;5.57;4.43;;;;;;;;;;5024454;28;20034;-68
2021/12/01 14:19:11;;;;;;;36.42;14.43;;;;;;;;;;5023377;28;20018;-68
2021/12/01 14:21:37;;;;;;;19.27;9.20;;;;;;;;;;5021373;28;20029;-68
2021/12/01 14:24:11;;;;;;;5.57;4.13;;;;;;;;;;5013465;28;20460;-68
2021/12/01 14:26:37;;;;;;;8.68;4.88;;;;;;;;;;5013590;28;20030;-68
2021/12/01 14:29:09;;;;;;;5.70;4.18;;;;;;;;;;5013345;28;20030;-68
2021/12/01 14:31:35;;;;;;;24.85;12.07;;;;;;;;;;5022649;28;20053;-68
2021/12/01 14:34:01;;;;;;;5.68;4.38;;;;;;;;;;5021240;28;20080;-68
2021/12/01 14:36:27;;;;;;;7.43;5.82;;;;;;;;;;5029570;28;20057;-68
2021/12/01 14:38:52;;;;;;;8.13;5.43;;;;;;;;;;5022483;28;20037;-68
2021/12/01 14:41:18;;;;;;;10.68;6.10;;;;;;;;;;5023462;28;20031;-69
2021/12/01 14:43:55;;;;;;;7.55;5.45;;;;;;;;;;5044249;28;20479;-67
2021/12/01 14:46:20;;;;;;;7.97;5.93;;;;;;;;;;5022161;28;20443;-66
2021/12/01 14:48:46;;;;;;;6.93;4.97;;;;;;;;;;5021362;28;20049;-66
2021/12/01 14:51:12;;;;;;;8.23;5.13;;;;;;;;;;5022469;28;20116;-66
2021/12/01 14:53:39;;;;;;;8.57;4.93;;;;;;;;;;5023105;28;20049;-66
2021/12/01 14:56:05;;;;;;;9.60;5.50;;;;;;;;;;5016924;28;20038;-66
2021/12/01 14:58:32;;;;;;;7.95;5.18;;;;;;;;;;5023399;28;20100;-66
2021/12/01 15:01:02;;;;;;;8.13;5.70;;;;;;;;;;5022457;28;20050;-66